createdAt,value
2018-05-09T00:00:02.562Z,1003.18
2018-05-09T00:01:02.543Z,1003.18
2018-05-09T00:02:02.534Z,1003.17
2018-05-09T00:03:02.515Z,1003.11
2018-05-09T00:04:02.502Z,1003.17
2018-05-09T00:05:02.491Z,1003.11
2018-05-09T00:06:02.477Z,1003.13
2018-05-09T00:07:02.465Z,1003.12
2018-05-09T00:08:02.458Z,1003.12
2018-05-09T00:09:02.487Z,1003.11
2018-05-09T00:10:02.424Z,1003.14
2018-05-09T00:11:02.411Z,1003.13
2018-05-09T00:12:02.440Z,1003.11
2018-05-09T00:13:02.387Z,1003.14
2018-05-09T00:14:02.370Z,1003.13
2018-05-09T00:15:02.366Z,1003.13
2018-05-09T00:16:02.345Z,1003.15
2018-05-09T00:17:02.332Z,1003.12
2018-05-09T00:18:02.320Z,1003.17
2018-05-09T00:19:02.306Z,1003.15
2018-05-09T00:20:02.293Z,1003.15
2018-05-09T00:21:02.279Z,1003.14
2018-05-09T00:22:02.266Z,1003.13
2018-05-09T00:23:02.253Z,1003.12
2018-05-09T00:24:02.239Z,1003.08
2018-05-09T00:25:02.226Z,1003.12
2018-05-09T00:26:02.213Z,1003.09
2018-05-09T00:27:02.202Z,1003.10
2018-05-09T00:28:02.186Z,1003.10
2018-05-09T00:29:02.172Z,1003.07
2018-05-09T00:30:02.161Z,1003.08
2018-05-09T00:31:02.153Z,1003.05
2018-05-09T00:32:02.137Z,1003.04
2018-05-09T00:33:02.123Z,1003.01
2018-05-09T00:34:02.110Z,1003.01
2018-05-09T00:35:02.097Z,1002.99
2018-05-09T00:36:02.086Z,1002.98
2018-05-09T00:37:02.068Z,1003.02
2018-05-09T00:38:02.068Z,1003.00
2018-05-09T00:39:02.045Z,1002.99
2018-05-09T00:40:02.031Z,1002.98
2018-05-09T00:41:02.015Z,1002.96
2018-05-09T00:42:02.001Z,1002.96
2018-05-09T00:43:02.004Z,1002.95
2018-05-09T00:44:01.978Z,1002.95
2018-05-09T00:45:01.963Z,1002.96
2018-05-09T00:46:01.950Z,1002.93
2018-05-09T00:47:01.935Z,1003.00
2018-05-09T00:48:01.921Z,1002.93
2018-05-09T00:49:01.912Z,1002.95
2018-05-09T00:50:02.002Z,1002.95
2018-05-09T00:51:01.884Z,1002.93
2018-05-09T00:52:01.944Z,1002.95
2018-05-09T00:53:01.857Z,1002.94
2018-05-09T00:54:01.842Z,1002.87
2018-05-09T00:55:01.830Z,1002.90
2018-05-09T00:56:01.818Z,1002.93
2018-05-09T00:57:01.814Z,1002.89
2018-05-09T00:58:01.797Z,1002.89
2018-05-09T00:59:01.778Z,1002.90
2018-05-09T01:00:01.781Z,1002.86
2018-05-09T01:01:01.757Z,1002.88
2018-05-09T01:02:01.736Z,1002.84
2018-05-09T01:03:01.721Z,1002.83
2018-05-09T01:04:01.707Z,1002.82
2018-05-09T01:05:01.701Z,1002.88
2018-05-09T01:06:01.682Z,1002.80
2018-05-09T01:07:01.678Z,1002.82
2018-05-09T01:08:01.652Z,1002.77
2018-05-09T01:09:01.644Z,1002.81
2018-05-09T01:10:01.629Z,1002.75
2018-05-09T01:11:01.624Z,1002.78
2018-05-09T01:12:01.599Z,1002.81
2018-05-09T01:13:01.588Z,1002.80
2018-05-09T01:14:01.586Z,1002.78
2018-05-09T01:15:01.565Z,1002.80
2018-05-09T01:16:01.547Z,1002.81
2018-05-09T01:17:01.532Z,1002.79
2018-05-09T01:18:01.520Z,1002.79
2018-05-09T01:19:01.506Z,1002.79
2018-05-09T01:20:01.492Z,1002.81
2018-05-09T01:21:01.496Z,1002.81
2018-05-09T01:22:01.466Z,1002.81
2018-05-09T01:23:01.451Z,1002.77
2018-05-09T01:24:01.438Z,1002.79
2018-05-09T01:25:01.423Z,1002.78
2018-05-09T01:26:01.412Z,1002.78
2018-05-09T01:27:01.396Z,1002.77
2018-05-09T01:28:01.380Z,1002.79
2018-05-09T01:29:01.369Z,1002.81
2018-05-09T01:30:01.356Z,1002.79
2018-05-09T01:31:01.340Z,1002.77
2018-05-09T01:32:01.326Z,1002.80
2018-05-09T01:33:01.314Z,1002.74
2018-05-09T01:34:01.300Z,1002.75
2018-05-09T01:35:01.295Z,1002.75
2018-05-09T01:36:01.279Z,1002.73
2018-05-09T01:37:01.257Z,1002.74
2018-05-09T01:38:01.244Z,1002.73
2018-05-09T01:39:01.231Z,1002.72
2018-05-09T01:40:01.216Z,1002.72
2018-05-09T01:41:01.203Z,1002.70
2018-05-09T01:42:01.190Z,1002.68
2018-05-09T01:43:01.180Z,1002.68
2018-05-09T01:44:01.161Z,1002.62
2018-05-09T01:45:01.148Z,1002.64
2018-05-09T01:46:01.135Z,1002.65
2018-05-09T01:47:01.126Z,1002.60
2018-05-09T01:48:01.106Z,1002.60
2018-05-09T01:49:01.092Z,1002.62
2018-05-09T01:50:01.079Z,1002.58
2018-05-09T01:51:01.070Z,1002.57
2018-05-09T01:52:01.051Z,1002.61
2018-05-09T01:53:01.036Z,1002.60
2018-05-09T01:54:01.026Z,1002.58
2018-05-09T01:55:01.107Z,1002.58
2018-05-09T01:56:00.996Z,1002.60
2018-05-09T01:57:00.983Z,1002.57
2018-05-09T01:58:00.967Z,1002.58
2018-05-09T01:59:00.954Z,1002.56
2018-05-09T02:00:00.947Z,1002.55
2018-05-09T02:01:00.929Z,1002.58
2018-05-09T02:02:00.914Z,1002.54
2018-05-09T02:03:00.900Z,1002.56
2018-05-09T02:04:00.888Z,1002.57
2018-05-09T02:05:00.874Z,1002.61
2018-05-09T02:06:00.941Z,1002.64
2018-05-09T02:07:00.843Z,1002.65
2018-05-09T02:08:00.826Z,1002.66
2018-05-09T02:09:00.814Z,1002.66
2018-05-09T02:10:00.802Z,1002.64
2018-05-09T02:11:00.788Z,1002.74
2018-05-09T02:12:00.772Z,1002.69
2018-05-09T02:13:00.758Z,1002.72
2018-05-09T02:14:00.743Z,1002.73
2018-05-09T02:15:00.732Z,1002.74
2018-05-09T02:16:00.714Z,1002.72
2018-05-09T02:17:00.704Z,1002.72
2018-05-09T02:18:00.695Z,1002.74
2018-05-09T02:19:00.673Z,1002.70
2018-05-09T02:20:00.660Z,1002.72
2018-05-09T02:21:00.647Z,1002.70
2018-05-09T02:22:00.632Z,1002.70
2018-05-09T02:23:00.627Z,1002.71
2018-05-09T02:24:00.679Z,1002.67
2018-05-09T02:25:00.598Z,1002.66
2018-05-09T02:26:00.578Z,1002.69
2018-05-09T02:27:00.570Z,1002.62
2018-05-09T02:28:00.547Z,1002.65
2018-05-09T02:29:00.535Z,1002.63
2018-05-09T02:30:00.525Z,1002.64
2018-05-09T02:31:00.604Z,1002.61
2018-05-09T02:32:00.491Z,1002.65
2018-05-09T02:33:00.476Z,1002.63
2018-05-09T02:34:00.466Z,1002.59
2018-05-09T02:35:00.447Z,1002.61
2018-05-09T02:36:00.435Z,1002.61
2018-05-09T02:37:00.433Z,1002.60
2018-05-09T02:38:00.410Z,1002.59
2018-05-09T02:39:00.392Z,1002.59
2018-05-09T02:40:00.378Z,1002.58
2018-05-09T02:41:00.362Z,1002.59
2018-05-09T02:42:00.350Z,1002.55
2018-05-09T02:43:00.339Z,1002.53
2018-05-09T02:44:00.324Z,1002.49
2018-05-09T02:45:00.307Z,1002.53
2018-05-09T02:46:00.295Z,1002.54
2018-05-09T02:47:00.282Z,1002.56
2018-05-09T02:48:00.272Z,1002.54
2018-05-09T02:49:00.259Z,1002.58
2018-05-09T02:50:00.370Z,1002.58
2018-05-09T02:51:00.221Z,1002.59
2018-05-09T02:52:00.206Z,1002.58
2018-05-09T02:53:01.409Z,1002.54
2018-05-09T02:54:00.182Z,1002.59
2018-05-09T02:55:00.164Z,1002.55
2018-05-09T02:56:00.150Z,1002.60
2018-05-09T02:57:00.135Z,1002.63
2018-05-09T02:58:00.121Z,1002.62
2018-05-09T02:59:00.106Z,1002.65
2018-05-09T03:00:00.094Z,1002.65
2018-05-09T03:01:00.077Z,1002.65
2018-05-09T03:02:00.063Z,1002.70
2018-05-09T03:03:00.048Z,1002.66
2018-05-09T03:04:00.035Z,1002.66
2018-05-09T03:05:00.028Z,1002.63
2018-05-09T03:06:00.005Z,1002.63
2018-05-09T03:06:59.992Z,1002.67
2018-05-09T03:07:59.983Z,1002.62
2018-05-09T03:08:59.969Z,1002.62
2018-05-09T03:09:59.946Z,1002.63
2018-05-09T03:10:59.931Z,1002.65
2018-05-09T03:11:59.917Z,1002.63
2018-05-09T03:12:59.904Z,1002.62
2018-05-09T03:13:59.888Z,1002.65
2018-05-09T03:14:59.875Z,1002.64
2018-05-09T03:15:59.861Z,1002.66
2018-05-09T03:16:59.843Z,1002.66
2018-05-09T03:17:59.830Z,1002.64
2018-05-09T03:18:59.898Z,1002.65
2018-05-09T03:19:59.800Z,1002.61
2018-05-09T03:20:59.788Z,1002.64
2018-05-09T03:21:59.774Z,1002.59
2018-05-09T03:22:59.760Z,1002.61
2018-05-09T03:23:59.742Z,1002.58
2018-05-09T03:24:59.742Z,1002.59
2018-05-09T03:25:59.730Z,1002.58
2018-05-09T03:26:59.700Z,1002.57
2018-05-09T03:27:59.685Z,1002.58
2018-05-09T03:28:59.674Z,1002.58
2018-05-09T03:29:59.656Z,1002.62
2018-05-09T03:30:59.649Z,1002.58
2018-05-09T03:31:59.629Z,1002.57
2018-05-09T03:32:59.612Z,1002.56
2018-05-09T03:33:59.603Z,1002.61
2018-05-09T03:34:59.583Z,1002.64
2018-05-09T03:35:59.568Z,1002.60
2018-05-09T03:36:59.554Z,1002.60
2018-05-09T03:37:59.541Z,1002.59
2018-05-09T03:38:59.530Z,1002.62
2018-05-09T03:39:59.511Z,1002.62
2018-05-09T03:40:59.499Z,1002.61
2018-05-09T03:41:59.478Z,1002.62
2018-05-09T03:42:59.466Z,1002.62
2018-05-09T03:43:59.450Z,1002.64
2018-05-09T03:44:59.437Z,1002.61
2018-05-09T03:46:02.655Z,1002.64
2018-05-09T03:46:59.407Z,1002.65
2018-05-09T03:47:59.391Z,1002.64
2018-05-09T03:48:59.379Z,1002.72
2018-05-09T03:49:59.363Z,1002.72
2018-05-09T03:50:59.367Z,1002.72
2018-05-09T03:51:59.333Z,1002.72
2018-05-09T03:52:59.322Z,1002.74
2018-05-09T03:53:59.305Z,1002.73
2018-05-09T03:54:59.292Z,1002.77
2018-05-09T03:55:59.276Z,1002.72
2018-05-09T03:56:59.261Z,1002.73
2018-05-09T03:57:59.254Z,1002.75
2018-05-09T03:58:59.233Z,1002.79
2018-05-09T03:59:59.219Z,1002.79
2018-05-09T04:00:59.203Z,1002.78
2018-05-09T04:01:59.192Z,1002.76
2018-05-09T04:02:59.174Z,1002.79
2018-05-09T04:03:59.157Z,1002.79
2018-05-09T04:04:59.159Z,1002.80
2018-05-09T04:05:59.135Z,1002.78
2018-05-09T04:06:59.122Z,1002.77
2018-05-09T04:07:59.107Z,1002.76
2018-05-09T04:08:59.084Z,1002.77
2018-05-09T04:09:59.080Z,1002.82
2018-05-09T04:10:59.056Z,1002.77
2018-05-09T04:11:59.047Z,1002.78
2018-05-09T04:12:59.027Z,1002.80
2018-05-09T04:13:59.014Z,1002.82
2018-05-09T04:14:58.997Z,1002.82
2018-05-09T04:15:58.981Z,1002.82
2018-05-09T04:16:58.968Z,1002.82
2018-05-09T04:17:58.952Z,1002.80
2018-05-09T04:18:58.937Z,1002.81
2018-05-09T04:19:58.924Z,1002.82
2018-05-09T04:20:58.911Z,1002.84
2018-05-09T04:21:58.894Z,1002.84
2018-05-09T04:22:58.878Z,1002.86
2018-05-09T04:23:58.864Z,1002.87
2018-05-09T04:24:58.848Z,1002.85
2018-05-09T04:25:58.833Z,1002.87
2018-05-09T04:26:58.820Z,1002.87
2018-05-09T04:27:58.812Z,1002.87
2018-05-09T04:28:58.796Z,1002.88
2018-05-09T04:29:58.775Z,1002.89
2018-05-09T04:30:58.766Z,1002.93
2018-05-09T04:31:58.745Z,1002.94
2018-05-09T04:32:58.729Z,1002.95
2018-05-09T04:33:58.715Z,1002.97
2018-05-09T04:34:58.707Z,1002.96
2018-05-09T04:35:58.686Z,1002.96
2018-05-09T04:36:58.672Z,1002.96
2018-05-09T04:37:58.658Z,1002.96
2018-05-09T04:38:58.655Z,1002.99
2018-05-09T04:39:58.628Z,1003.01
2018-05-09T04:40:58.615Z,1003.06
2018-05-09T04:41:58.678Z,1003.09
2018-05-09T04:42:58.584Z,1003.07
2018-05-09T04:43:58.569Z,1003.07
2018-05-09T04:44:58.556Z,1003.03
2018-05-09T04:45:58.550Z,1003.04
2018-05-09T04:46:58.530Z,1003.02
2018-05-09T04:47:58.511Z,1003.00
2018-05-09T04:48:58.498Z,1003.01
2018-05-09T04:49:58.500Z,1003.00
2018-05-09T04:50:58.468Z,1003.01
2018-05-09T04:51:58.452Z,1003.01
2018-05-09T04:52:58.437Z,1003.07
2018-05-09T04:53:58.427Z,1003.09
2018-05-09T04:54:58.425Z,1003.07
2018-05-09T04:55:58.399Z,1003.06
2018-05-09T04:56:58.383Z,1003.04
2018-05-09T04:57:58.379Z,1003.06
2018-05-09T04:58:58.352Z,1002.99
2018-05-09T04:59:58.337Z,1003.03
2018-05-09T05:00:58.321Z,1002.95
2018-05-09T05:01:58.313Z,1002.94
2018-05-09T05:02:58.292Z,1002.92
2018-05-09T05:03:58.279Z,1002.92
2018-05-09T05:04:58.313Z,1002.95
2018-05-09T05:05:58.247Z,1002.94
2018-05-09T05:06:58.273Z,1002.96
2018-05-09T05:07:58.232Z,1002.90
2018-05-09T05:08:58.206Z,1002.89
2018-05-09T05:09:58.192Z,1002.92
2018-05-09T05:10:58.188Z,1002.94
2018-05-09T05:11:58.158Z,1002.96
2018-05-09T05:12:58.169Z,1002.98
2018-05-09T05:13:58.130Z,1002.98
2018-05-09T05:14:58.131Z,1003.01
2018-05-09T05:15:58.101Z,1003.00
2018-05-09T05:16:58.087Z,1002.97
2018-05-09T05:17:58.072Z,1002.99
2018-05-09T05:18:58.058Z,1003.02
2018-05-09T05:19:58.044Z,1003.02
2018-05-09T05:20:58.028Z,1003.02
2018-05-09T05:21:58.013Z,1003.02
2018-05-09T05:22:58.007Z,1003.03
2018-05-09T05:23:57.984Z,1003.05
2018-05-09T05:24:57.977Z,1003.07
2018-05-09T05:25:57.958Z,1003.07
2018-05-09T05:26:57.952Z,1003.06
2018-05-09T05:27:57.927Z,1003.36
2018-05-09T05:28:57.914Z,1003.63
2018-05-09T05:29:57.910Z,1003.71
2018-05-09T05:30:57.886Z,1003.71
2018-05-09T05:31:57.871Z,1003.74
2018-05-09T05:32:57.860Z,1003.82
2018-05-09T05:33:57.845Z,1003.81
2018-05-09T05:34:57.833Z,1003.85
2018-05-09T05:35:57.817Z,1003.87
2018-05-09T05:36:57.812Z,1003.93
2018-05-09T05:37:57.793Z,1003.91
2018-05-09T05:38:57.782Z,1003.91
2018-05-09T05:39:57.777Z,1003.88
2018-05-09T05:40:57.756Z,1003.91
2018-05-09T05:41:57.746Z,1003.89
2018-05-09T05:42:57.734Z,1003.97
2018-05-09T05:43:57.724Z,1003.95
2018-05-09T05:44:57.945Z,1003.99
2018-05-09T05:45:57.704Z,1003.93
2018-05-09T05:46:57.691Z,1003.97
2018-05-09T05:47:57.692Z,1003.91
2018-05-09T05:48:57.674Z,1003.93
2018-05-09T05:49:57.663Z,1003.94
2018-05-09T05:50:57.657Z,1003.90
2018-05-09T05:51:57.680Z,1003.89
2018-05-09T05:52:57.638Z,1003.92
2018-05-09T05:53:57.639Z,1003.93
2018-05-09T05:54:57.621Z,1003.96
2018-05-09T05:55:57.699Z,1003.89
2018-05-09T05:56:57.614Z,1003.93
2018-05-09T05:57:57.600Z,1003.91
2018-05-09T05:58:57.591Z,1003.91
2018-05-09T05:59:57.583Z,1003.95
2018-05-09T06:00:57.732Z,1003.95
2018-05-09T06:01:57.571Z,1003.91
2018-05-09T06:02:57.775Z,1003.90
2018-05-09T06:03:57.558Z,1003.88
2018-05-09T06:04:57.553Z,1003.86
2018-05-09T06:05:57.548Z,1003.82
2018-05-09T06:06:57.542Z,1003.85
2018-05-09T06:07:57.573Z,1003.82
2018-05-09T06:08:57.535Z,1003.81
2018-05-09T06:09:57.528Z,1003.78
2018-05-09T06:10:57.532Z,1003.78
2018-05-09T06:11:57.517Z,1003.78
2018-05-09T06:12:57.514Z,1003.80
2018-05-09T06:13:57.509Z,1003.81
2018-05-09T06:14:57.513Z,1003.76
2018-05-09T06:15:57.500Z,1003.84
2018-05-09T06:16:57.508Z,1003.85
2018-05-09T06:17:57.492Z,1003.84
2018-05-09T06:18:57.494Z,1003.85
2018-05-09T06:19:57.487Z,1003.80
2018-05-09T06:20:57.483Z,1003.79
2018-05-09T06:21:57.485Z,1003.65
2018-05-09T06:22:57.478Z,1003.54
2018-05-09T06:23:57.500Z,1003.67
2018-05-09T06:24:57.500Z,1003.67
2018-05-09T06:25:57.472Z,1003.66
2018-05-09T06:27:41.952Z,1003.78
2018-05-09T06:28:41.954Z,1003.76
2018-05-09T06:29:41.948Z,1003.84
2018-05-09T06:30:41.951Z,1003.85
2018-05-09T06:31:41.943Z,1003.85
2018-05-09T06:32:41.946Z,1003.85
2018-05-09T06:33:41.936Z,1003.86
2018-05-09T06:34:41.933Z,1003.85
2018-05-09T06:35:41.933Z,1003.83
2018-05-09T06:36:41.929Z,1003.85
2018-05-09T06:37:42.034Z,1003.77
2018-05-09T06:38:41.923Z,1003.82
2018-05-09T06:39:41.923Z,1003.81
2018-05-09T06:40:41.916Z,1003.81
2018-05-09T06:41:41.989Z,1003.64
2018-05-09T06:42:41.916Z,1003.63
2018-05-09T06:43:41.977Z,1003.63
2018-05-09T06:44:41.909Z,1003.65
2018-05-09T06:45:41.910Z,1003.64
2018-05-09T06:46:41.905Z,1003.66
2018-05-09T06:47:41.902Z,1003.67
2018-05-09T06:48:41.901Z,1003.66
2018-05-09T06:49:41.902Z,1003.68
2018-05-09T06:50:41.893Z,1003.69
2018-05-09T06:51:41.909Z,1003.70
2018-05-09T06:52:41.895Z,1003.71
2018-05-09T06:53:41.885Z,1003.71
2018-05-09T06:54:41.881Z,1003.68
2018-05-09T06:55:41.879Z,1003.65
2018-05-09T06:56:41.873Z,1003.65
2018-05-09T06:57:41.867Z,1003.62
2018-05-09T06:58:41.865Z,1003.63
2018-05-09T06:59:41.863Z,1003.65
2018-05-09T07:00:41.856Z,1003.66
2018-05-09T07:01:41.863Z,1003.61
2018-05-09T07:02:41.843Z,1003.64
2018-05-09T07:03:41.844Z,1003.62
2018-05-09T07:04:41.832Z,1003.68
2018-05-09T07:05:41.827Z,1003.67
2018-05-09T07:06:42.280Z,1003.67
2018-05-09T07:07:41.818Z,1003.72
2018-05-09T07:08:41.817Z,1003.84
2018-05-09T07:09:41.858Z,1003.79
2018-05-09T07:10:41.796Z,1003.72
2018-05-09T07:11:41.796Z,1003.67
2018-05-09T07:12:41.897Z,1003.64
2018-05-09T07:13:41.790Z,1003.63
2018-05-09T07:14:41.770Z,1003.71
2018-05-09T07:15:41.766Z,1003.65
2018-05-09T07:16:41.759Z,1003.64
2018-05-09T07:17:41.752Z,1003.61
2018-05-09T07:18:41.746Z,1003.62
2018-05-09T07:19:41.737Z,1003.61
2018-05-09T07:20:41.738Z,1003.54
2018-05-09T07:21:41.725Z,1003.55
2018-05-09T07:22:41.720Z,1003.61
2018-05-09T07:23:41.712Z,1003.59
2018-05-09T07:24:41.705Z,1003.54
2018-05-09T07:25:41.696Z,1003.51
2018-05-09T07:26:41.693Z,1003.59
2018-05-09T07:27:44.971Z,1003.56
2018-05-09T07:28:41.678Z,1003.58
2018-05-09T07:29:41.671Z,1003.56
2018-05-09T07:30:41.672Z,1003.57
2018-05-09T07:31:41.656Z,1003.56
2018-05-09T07:32:41.653Z,1003.52
2018-05-09T07:33:41.642Z,1003.58
2018-05-09T07:34:41.641Z,1003.58
2018-05-09T07:35:41.627Z,1003.56
2018-05-09T07:36:41.622Z,1003.56
2018-05-09T07:37:41.621Z,1003.55
2018-05-09T07:38:41.604Z,1003.55
2018-05-09T07:39:41.599Z,1003.61
2018-05-09T07:40:41.589Z,1003.65
2018-05-09T07:41:41.589Z,1003.63
2018-05-09T07:42:41.576Z,1003.57
2018-05-09T07:43:41.564Z,1003.56
2018-05-09T07:44:41.557Z,1003.54
2018-05-09T07:45:41.547Z,1003.58
2018-05-09T07:46:41.545Z,1003.56
2018-05-09T07:47:41.609Z,1003.57
2018-05-09T07:48:41.527Z,1003.58
2018-05-09T07:49:41.520Z,1003.61
2018-05-09T07:50:41.517Z,1003.64
2018-05-09T07:51:41.706Z,1003.57
2018-05-09T07:52:41.648Z,1003.57
2018-05-09T07:53:41.491Z,1003.60
2018-05-09T07:54:41.484Z,1003.59
2018-05-09T07:55:41.476Z,1003.62
2018-05-09T07:56:41.471Z,1003.61
2018-05-09T07:57:41.523Z,1003.61
2018-05-09T07:58:41.450Z,1003.74
2018-05-09T07:59:41.441Z,1003.79
2018-05-09T08:00:41.443Z,1003.75
2018-05-09T08:01:41.426Z,1003.74
2018-05-09T08:02:41.422Z,1003.64
2018-05-09T08:03:41.421Z,1003.63
2018-05-09T08:04:41.418Z,1003.61
2018-05-09T08:05:41.397Z,1003.59
2018-05-09T08:06:41.400Z,1003.62
2018-05-09T08:07:41.380Z,1003.59
2018-05-09T08:08:41.384Z,1003.58
2018-05-09T08:09:41.369Z,1003.52
2018-05-09T08:10:41.365Z,1003.53
2018-05-09T08:11:41.353Z,1003.50
2018-05-09T08:12:41.344Z,1003.48
2018-05-09T08:13:41.341Z,1003.51
2018-05-09T08:14:41.330Z,1003.52
2018-05-09T08:15:41.319Z,1003.44
2018-05-09T08:16:41.314Z,1003.43
2018-05-09T08:17:41.304Z,1003.42
2018-05-09T08:18:41.307Z,1003.45
2018-05-09T08:19:41.289Z,1003.42
2018-05-09T08:20:41.281Z,1003.43
2018-05-09T08:21:41.274Z,1003.46
2018-05-09T08:22:41.264Z,1003.46
2018-05-09T08:23:41.289Z,1003.45
2018-05-09T08:24:41.333Z,1003.46
2018-05-09T08:25:41.243Z,1003.43
2018-05-09T08:26:41.240Z,1003.45
2018-05-09T08:27:41.222Z,1003.47
2018-05-09T08:28:41.215Z,1003.47
2018-05-09T08:29:41.208Z,1003.50
2018-05-09T08:30:41.198Z,1003.50
2018-05-09T08:31:41.190Z,1003.51
2018-05-09T08:32:41.184Z,1003.51
2018-05-09T08:33:41.182Z,1003.50
2018-05-09T08:34:41.184Z,1003.49
2018-05-09T08:35:41.158Z,1003.50
2018-05-09T08:36:41.154Z,1003.54
2018-05-09T08:37:41.228Z,1003.54
2018-05-09T08:38:41.152Z,1003.49
2018-05-09T08:39:41.127Z,1003.52
2018-05-09T08:40:41.117Z,1003.55
2018-05-09T08:41:41.116Z,1003.53
2018-05-09T08:42:41.100Z,1003.51
2018-05-09T08:43:41.305Z,1003.50
2018-05-09T08:44:41.083Z,1003.51
2018-05-09T08:45:41.078Z,1003.49
2018-05-09T08:46:41.084Z,1003.49
2018-05-09T08:47:41.064Z,1003.48
2018-05-09T08:48:41.057Z,1003.49
2018-05-09T08:49:41.044Z,1003.51
2018-05-09T08:50:41.032Z,1003.46
2018-05-09T08:51:41.024Z,1003.48
2018-05-09T08:52:41.015Z,1003.50
2018-05-09T08:53:41.010Z,1003.51
2018-05-09T08:54:40.999Z,1003.47
2018-05-09T08:55:40.990Z,1003.51
2018-05-09T08:56:40.982Z,1003.47
2018-05-09T08:57:40.973Z,1003.51
2018-05-09T08:58:40.973Z,1003.53
2018-05-09T08:59:40.964Z,1003.55
2018-05-09T09:00:40.955Z,1003.58
2018-05-09T09:01:40.939Z,1003.56
2018-05-09T09:02:40.932Z,1003.75
2018-05-09T09:03:40.922Z,1003.54
2018-05-09T09:04:40.934Z,1003.52
2018-05-09T09:05:40.916Z,1003.54
2018-05-09T09:06:40.898Z,1003.53
2018-05-09T09:07:40.891Z,1003.49
2018-05-09T09:08:40.883Z,1003.50
2018-05-09T09:09:41.277Z,1003.51
2018-05-09T09:10:40.866Z,1003.74
2018-05-09T09:11:40.857Z,1003.47
2018-05-09T09:12:40.852Z,1003.50
2018-05-09T09:13:40.842Z,1003.79
2018-05-09T09:14:40.844Z,1003.69
2018-05-09T09:15:40.838Z,1003.55
2018-05-09T09:16:40.821Z,1003.58
2018-05-09T09:17:40.819Z,1003.71
2018-05-09T09:18:40.852Z,1003.73
2018-05-09T09:19:40.801Z,1003.59
2018-05-09T09:20:40.794Z,1003.52
2018-05-09T09:21:40.788Z,1003.54
2018-05-09T09:22:40.784Z,1003.53
2018-05-09T09:23:40.780Z,1003.53
2018-05-09T09:24:40.783Z,1003.50
2018-05-09T09:25:40.766Z,1003.48
2018-05-09T09:26:40.759Z,1003.46
2018-05-09T09:27:40.752Z,1003.54
2018-05-09T09:28:40.746Z,1003.45
2018-05-09T09:29:40.742Z,1003.43
2018-05-09T09:30:40.750Z,1003.40
2018-05-09T09:31:40.741Z,1003.38
2018-05-09T09:32:40.735Z,1003.37
2018-05-09T09:33:40.727Z,1003.38
2018-05-09T09:34:40.714Z,1003.37
2018-05-09T09:35:40.718Z,1003.65
2018-05-09T09:36:40.703Z,1003.64
2018-05-09T09:37:40.706Z,1003.61
2018-05-09T09:38:40.692Z,1003.68
2018-05-09T09:39:40.686Z,1003.65
2018-05-09T09:40:40.679Z,1003.44
2018-05-09T09:41:40.691Z,1003.61
2018-05-09T09:42:40.671Z,1003.61
2018-05-09T09:43:40.664Z,1003.58
2018-05-09T09:44:40.665Z,1003.60
2018-05-09T09:45:40.658Z,1003.61
2018-05-09T09:46:40.659Z,1003.63
2018-05-09T09:47:40.655Z,1003.64
2018-05-09T09:48:40.652Z,1003.63
2018-05-09T09:49:40.652Z,1003.61
2018-05-09T09:50:40.731Z,1003.60
2018-05-09T09:51:40.650Z,1003.55
2018-05-09T09:52:40.652Z,1003.51
2018-05-09T09:53:40.662Z,1003.51
2018-05-09T09:54:40.655Z,1003.49
2018-05-09T09:55:40.655Z,1003.49
2018-05-09T09:56:40.659Z,1003.42
2018-05-09T09:57:40.712Z,1003.39
2018-05-09T09:58:40.663Z,1003.34
2018-05-09T09:59:40.665Z,1003.31
2018-05-09T10:00:40.668Z,1003.30
2018-05-09T10:01:40.687Z,1003.29
2018-05-09T10:02:40.682Z,1003.30
2018-05-09T10:03:40.680Z,1003.31
2018-05-09T10:04:40.683Z,1003.30
2018-05-09T10:05:40.688Z,1003.28
2018-05-09T10:06:40.694Z,1003.25
2018-05-09T10:07:40.697Z,1003.21
2018-05-09T10:08:40.709Z,1003.21
2018-05-09T10:09:40.706Z,1003.20
2018-05-09T10:10:40.721Z,1003.17
2018-05-09T10:11:40.717Z,1003.15
2018-05-09T10:12:40.725Z,1003.09
2018-05-09T10:13:40.733Z,1003.04
2018-05-09T10:14:40.739Z,1002.96
2018-05-09T10:15:40.741Z,1002.92
2018-05-09T10:16:40.747Z,1002.95
2018-05-09T10:17:40.755Z,1002.93
2018-05-09T10:18:40.767Z,1002.87
2018-05-09T10:19:40.777Z,1002.83
2018-05-09T10:20:40.781Z,1002.82
2018-05-09T10:21:40.778Z,1002.93
2018-05-09T10:22:40.787Z,1002.92
2018-05-09T10:23:40.791Z,1002.88
2018-05-09T10:24:40.801Z,1002.76
2018-05-09T10:25:40.816Z,1002.74
2018-05-09T10:26:40.812Z,1002.67
2018-05-09T10:27:40.819Z,1002.57
2018-05-09T10:28:40.835Z,1002.56
2018-05-09T10:29:40.837Z,1002.58
2018-05-09T10:30:40.842Z,1002.56
2018-05-09T10:31:40.848Z,1002.54
2018-05-09T10:32:40.864Z,1002.46
2018-05-09T10:33:40.871Z,1002.48
2018-05-09T10:34:40.869Z,1002.46
2018-05-09T10:35:40.876Z,1002.43
2018-05-09T10:36:40.886Z,1002.42
2018-05-09T10:37:40.893Z,1002.47
2018-05-09T10:38:41.053Z,1002.53
2018-05-09T10:39:40.907Z,1002.52
2018-05-09T10:40:40.917Z,1002.48
2018-05-09T10:41:40.927Z,1002.43
2018-05-09T10:42:40.933Z,1002.46
2018-05-09T10:43:40.945Z,1002.57
2018-05-09T10:44:40.946Z,1002.55
2018-05-09T10:45:40.954Z,1002.52
2018-05-09T10:46:40.962Z,1002.47
2018-05-09T10:47:40.982Z,1002.52
2018-05-09T10:48:40.984Z,1002.52
2018-05-09T10:49:40.996Z,1002.44
2018-05-09T10:50:40.998Z,1002.48
2018-05-09T10:51:41.006Z,1002.56
2018-05-09T10:52:41.016Z,1002.62
2018-05-09T10:53:41.018Z,1002.61
2018-05-09T10:54:41.025Z,1002.69
2018-05-09T10:55:41.029Z,1002.79
2018-05-09T10:56:41.037Z,1002.88
2018-05-09T10:57:41.054Z,1002.86
2018-05-09T10:58:41.050Z,1002.96
2018-05-09T10:59:41.058Z,1002.90
2018-05-09T11:00:41.067Z,1003.03
2018-05-09T11:01:41.079Z,1003.10
2018-05-09T11:02:41.077Z,1003.02
2018-05-09T11:03:41.085Z,1003.07
2018-05-09T11:04:41.090Z,1003.11
2018-05-09T11:05:41.098Z,1003.09
2018-05-09T11:06:41.104Z,1003.07
2018-05-09T11:07:41.110Z,1003.08
2018-05-09T11:08:41.116Z,1003.10
2018-05-09T11:09:41.128Z,1003.20
2018-05-09T11:10:41.149Z,1003.29
2018-05-09T11:11:41.146Z,1003.28
2018-05-09T11:12:41.153Z,1003.24
2018-05-09T11:13:41.152Z,1003.29
2018-05-09T11:14:41.165Z,1003.31
2018-05-09T11:15:41.170Z,1003.23
2018-05-09T11:16:41.226Z,1003.25
2018-05-09T11:17:41.255Z,1003.38
2018-05-09T11:18:41.202Z,1003.51
2018-05-09T11:19:41.191Z,1003.55
2018-05-09T11:20:41.216Z,1003.72
2018-05-09T11:21:41.206Z,1003.98
2018-05-09T11:22:41.217Z,1003.95
2018-05-09T11:23:41.223Z,1003.84
2018-05-09T11:24:41.323Z,1003.73
2018-05-09T11:25:41.230Z,1003.57
2018-05-09T11:26:41.343Z,1003.71
2018-05-09T11:27:41.241Z,1003.73
2018-05-09T11:28:41.253Z,1003.58
2018-05-09T11:29:41.256Z,1003.50
2018-05-09T11:30:41.259Z,1003.69
2018-05-09T11:31:41.266Z,1003.60
2018-05-09T11:32:41.330Z,1003.52
2018-05-09T11:33:41.357Z,1003.47
2018-05-09T11:34:41.300Z,1003.37
2018-05-09T11:35:41.290Z,1003.22
2018-05-09T11:36:41.301Z,1003.20
2018-05-09T11:37:41.303Z,1003.18
2018-05-09T11:38:41.305Z,1003.09
2018-05-09T11:39:41.306Z,1003.08
2018-05-09T11:40:41.312Z,1003.02
2018-05-09T11:41:41.316Z,1002.98
2018-05-09T11:42:41.330Z,1003.02
2018-05-09T11:43:41.336Z,1002.90
2018-05-09T11:44:41.332Z,1002.64
2018-05-09T11:45:41.340Z,1002.57
2018-05-09T11:46:41.339Z,1002.49
2018-05-09T11:47:41.341Z,1002.45
2018-05-09T11:48:41.346Z,1002.40
2018-05-09T11:49:41.343Z,1002.36
2018-05-09T11:50:41.348Z,1002.29
2018-05-09T11:51:41.353Z,1002.28
2018-05-09T11:52:41.355Z,1002.26
2018-05-09T11:53:41.351Z,1002.26
2018-05-09T11:54:41.363Z,1002.30
2018-05-09T11:55:41.351Z,1002.27
2018-05-09T11:56:41.356Z,1002.29
2018-05-09T11:57:41.359Z,1002.22
2018-05-09T11:58:41.358Z,1002.25
2018-05-09T11:59:41.356Z,1002.24
2018-05-09T12:00:41.372Z,1002.20
2018-05-09T12:01:41.360Z,1002.14
2018-05-09T12:02:41.372Z,1002.12
2018-05-09T12:03:41.356Z,1002.13
2018-05-09T12:04:41.361Z,1002.12
2018-05-09T12:05:41.354Z,1002.06